sensor_id;sensor_type;location;lat;lon;timestamp;pressure;altitude;pressure_sealevel;temperature;humidity
77077;BME280;66003;52.286;104.306;2024-03-22T00:01:50;96179.19;;;-5.33;42.39
77077;BME280;66003;52.286;104.306;2024-03-22T00:04:17;96186.19;;;-5.38;42.62
77077;BME280;66003;52.286;104.306;2024-03-22T00:06:45;96189.09;;;-5.58;42.92
77077;BME280;66003;52.286;104.306;2024-03-22T00:09:12;96197.50;;;-5.49;43.13
77077;BME280;66003;52.286;104.306;2024-03-22T00:11:42;96209.16;;;-5.45;43.22
77077;BME280;66003;52.286;104.306;2024-03-22T00:14:10;96207.00;;;-5.48;43.37
77077;BME280;66003;52.286;104.306;2024-03-22T00:16:36;96215.75;;;-5.36;42.87
77077;BME280;66003;52.286;104.306;2024-03-22T00:19:03;96209.34;;;-5.29;43.01
77077;BME280;66003;52.286;104.306;2024-03-22T00:21:29;96213.94;;;-5.12;42.87
77077;BME280;66003;52.286;104.306;2024-03-22T00:23:58;96212.63;;;-5.33;43.09
77077;BME280;66003;52.286;104.306;2024-03-22T00:26:27;96220.13;;;-5.19;42.95
77077;BME280;66003;52.286;104.306;2024-03-22T00:28:53;96223.91;;;-5.56;43.37
77077;BME280;66003;52.286;104.306;2024-03-22T00:31:19;96228.91;;;-5.36;43.65
77077;BME280;66003;52.286;104.306;2024-03-22T00:33:45;96222.75;;;-5.19;43.88
77077;BME280;66003;52.286;104.306;2024-03-22T00:36:12;96217.44;;;-5.42;44.10
77077;BME280;66003;52.286;104.306;2024-03-22T00:38:38;96225.56;;;-5.43;43.38
77077;BME280;66003;52.286;104.306;2024-03-22T00:41:04;96228.63;;;-5.46;43.32
77077;BME280;66003;52.286;104.306;2024-03-22T00:43:30;96235.75;;;-5.47;43.42
77077;BME280;66003;52.286;104.306;2024-03-22T00:45:56;96247.25;;;-5.60;43.32
77077;BME280;66003;52.286;104.306;2024-03-22T00:48:24;96272.44;;;-5.82;43.68
77077;BME280;66003;52.286;104.306;2024-03-22T00:50:50;96271.66;;;-5.82;44.19
77077;BME280;66003;52.286;104.306;2024-03-22T00:53:16;96287.66;;;-6.02;43.50
77077;BME280;66003;52.286;104.306;2024-03-22T00:55:42;96287.72;;;-5.72;43.70
77077;BME280;66003;52.286;104.306;2024-03-22T00:58:09;96298.19;;;-5.84;42.02
77077;BME280;66003;52.286;104.306;2024-03-22T01:00:35;96304.53;;;-5.92;42.24
77077;BME280;66003;52.286;104.306;2024-03-22T01:03:03;96301.81;;;-6.03;42.18
77077;BME280;66003;52.286;104.306;2024-03-22T01:05:30;96322.03;;;-6.40;42.14
77077;BME280;66003;52.286;104.306;2024-03-22T01:07:56;96308.06;;;-6.59;41.79
77077;BME280;66003;52.286;104.306;2024-03-22T01:10:22;96317.34;;;-6.81;40.82
77077;BME280;66003;52.286;104.306;2024-03-22T01:12:48;96327.53;;;-6.67;41.37
77077;BME280;66003;52.286;104.306;2024-03-22T01:15:14;96334.88;;;-6.50;41.93
77077;BME280;66003;52.286;104.306;2024-03-22T01:17:40;96329.28;;;-6.36;41.63
77077;BME280;66003;52.286;104.306;2024-03-22T01:20:07;96344.75;;;-6.28;41.87
77077;BME280;66003;52.286;104.306;2024-03-22T01:22:33;96341.56;;;-6.30;40.92
77077;BME280;66003;52.286;104.306;2024-03-22T01:25:00;96328.91;;;-6.39;40.64
77077;BME280;66003;52.286;104.306;2024-03-22T01:27:26;96337.44;;;-6.19;41.98
77077;BME280;66003;52.286;104.306;2024-03-22T01:29:52;96341.19;;;-6.33;41.45
77077;BME280;66003;52.286;104.306;2024-03-22T01:32:18;96339.34;;;-6.08;41.61
77077;BME280;66003;52.286;104.306;2024-03-22T01:34:44;96343.34;;;-6.05;41.63
77077;BME280;66003;52.286;104.306;2024-03-22T01:37:10;96357.44;;;-5.45;41.43
77077;BME280;66003;52.286;104.306;2024-03-22T01:39:36;96362.53;;;-5.13;40.21
77077;BME280;66003;52.286;104.306;2024-03-22T01:42:03;96358.34;;;-4.91;39.70
77077;BME280;66003;52.286;104.306;2024-03-22T01:44:31;96352.81;;;-4.48;39.45
77077;BME280;66003;52.286;104.306;2024-03-22T01:46:58;96358.47;;;-4.10;38.53
77077;BME280;66003;52.286;104.306;2024-03-22T01:49:26;96363.50;;;-4.31;37.19
77077;BME280;66003;52.286;104.306;2024-03-22T01:51:53;96363.81;;;-3.69;38.16
77077;BME280;66003;52.286;104.306;2024-03-22T01:54:20;96365.88;;;-3.48;36.97
77077;BME280;66003;52.286;104.306;2024-03-22T01:56:46;96361.97;;;-3.17;37.44
77077;BME280;66003;52.286;104.306;2024-03-22T01:59:13;96368.72;;;-3.10;37.37
77077;BME280;66003;52.286;104.306;2024-03-22T02:01:39;96371.66;;;-2.94;37.46
77077;BME280;66003;52.286;104.306;2024-03-22T02:04:06;96382.91;;;-2.71;37.89
77077;BME280;66003;52.286;104.306;2024-03-22T02:06:33;96386.41;;;-2.53;37.67
77077;BME280;66003;52.286;104.306;2024-03-22T02:08:59;96382.78;;;-2.47;36.92
77077;BME280;66003;52.286;104.306;2024-03-22T02:11:26;96392.09;;;-2.28;35.65
77077;BME280;66003;52.286;104.306;2024-03-22T02:13:53;96390.72;;;-2.14;34.24
77077;BME280;66003;52.286;104.306;2024-03-22T02:16:20;96387.59;;;-2.44;32.96
77077;BME280;66003;52.286;104.306;2024-03-22T02:18:46;96392.16;;;-2.56;34.11
77077;BME280;66003;52.286;104.306;2024-03-22T02:21:12;96400.44;;;-2.53;35.31
77077;BME280;66003;52.286;104.306;2024-03-22T02:23:40;96398.16;;;-2.61;34.53
77077;BME280;66003;52.286;104.306;2024-03-22T02:26:07;96409.28;;;-2.76;34.23
77077;BME280;66003;52.286;104.306;2024-03-22T02:28:35;96408.03;;;-2.85;33.69
77077;BME280;66003;52.286;104.306;2024-03-22T02:31:03;96422.69;;;-2.94;32.12
77077;BME280;66003;52.286;104.306;2024-03-22T02:33:30;96417.25;;;-3.16;32.62
77077;BME280;66003;52.286;104.306;2024-03-22T02:35:57;96414.81;;;-3.17;33.46
77077;BME280;66003;52.286;104.306;2024-03-22T02:38:23;96412.84;;;-3.10;31.35
77077;BME280;66003;52.286;104.306;2024-03-22T02:40:51;96416.16;;;-2.75;30.70
77077;BME280;66003;52.286;104.306;2024-03-22T02:43:18;96411.03;;;-2.53;31.12
77077;BME280;66003;52.286;104.306;2024-03-22T02:45:46;96430.34;;;-2.36;30.70
77077;BME280;66003;52.286;104.306;2024-03-22T02:48:13;96408.09;;;-2.06;31.66
77077;BME280;66003;52.286;104.306;2024-03-22T02:50:39;96424.28;;;-1.86;30.53
77077;BME280;66003;52.286;104.306;2024-03-22T02:53:06;96425.03;;;-1.69;30.65
77077;BME280;66003;52.286;104.306;2024-03-22T02:55:39;96418.13;;;-1.53;28.97
77077;BME280;66003;52.286;104.306;2024-03-22T02:58:07;96430.13;;;-1.45;29.04
77077;BME280;66003;52.286;104.306;2024-03-22T03:00:38;96425.16;;;-1.20;29.22
77077;BME280;66003;52.286;104.306;2024-03-22T03:03:06;96424.91;;;-1.02;27.63
77077;BME280;66003;52.286;104.306;2024-03-22T03:05:33;96425.06;;;-0.65;30.07
77077;BME280;66003;52.286;104.306;2024-03-22T03:08:00;96430.44;;;-0.81;29.07
77077;BME280;66003;52.286;104.306;2024-03-22T03:10:27;96426.00;;;-0.76;27.74
77077;BME280;66003;52.286;104.306;2024-03-22T03:12:56;96422.38;;;-0.92;29.80
77077;BME280;66003;52.286;104.306;2024-03-22T03:15:22;96424.13;;;-1.41;27.48
77077;BME280;66003;52.286;104.306;2024-03-22T03:17:48;96429.66;;;-1.21;27.83
77077;BME280;66003;52.286;104.306;2024-03-22T03:20:15;96425.41;;;-1.05;26.42
77077;BME280;66003;52.286;104.306;2024-03-22T03:22:42;96411.53;;;-0.63;28.67
77077;BME280;66003;52.286;104.306;2024-03-22T03:25:08;96408.91;;;-0.31;25.76
77077;BME280;66003;52.286;104.306;2024-03-22T03:27:35;96401.34;;;0.19;25.82
77077;BME280;66003;52.286;104.306;2024-03-22T03:30:02;96398.56;;;0.41;26.95
77077;BME280;66003;52.286;104.306;2024-03-22T03:32:34;96391.78;;;0.66;27.54
77077;BME280;66003;52.286;104.306;2024-03-22T03:35:01;96389.19;;;0.81;25.16
77077;BME280;66003;52.286;104.306;2024-03-22T03:37:31;96386.00;;;0.84;24.41
77077;BME280;66003;52.286;104.306;2024-03-22T03:40:00;96388.50;;;1.11;24.59
77077;BME280;66003;52.286;104.306;2024-03-22T03:42:26;96391.44;;;1.19;24.27
77077;BME280;66003;52.286;104.306;2024-03-22T03:44:52;96391.88;;;0.91;26.24
77077;BME280;66003;52.286;104.306;2024-03-22T03:47:18;96387.91;;;0.36;25.16
77077;BME280;66003;52.286;104.306;2024-03-22T03:49:47;96389.94;;;0.24;25.01
77077;BME280;66003;52.286;104.306;2024-03-22T03:52:13;96384.97;;;0.38;24.51
77077;BME280;66003;52.286;104.306;2024-03-22T03:54:40;96386.84;;;0.37;25.21
77077;BME280;66003;52.286;104.306;2024-03-22T03:57:06;96383.63;;;-0.07;22.64
77077;BME280;66003;52.286;104.306;2024-03-22T03:59:33;96378.59;;;-0.03;22.19
77077;BME280;66003;52.286;104.306;2024-03-22T04:01:59;96376.69;;;0.29;21.54
77077;BME280;66003;52.286;104.306;2024-03-22T04:04:25;96372.59;;;0.58;22.63
77077;BME280;66003;52.286;104.306;2024-03-22T04:06:51;96373.75;;;0.78;21.21
77077;BME280;66003;52.286;104.306;2024-03-22T04:09:18;96368.16;;;0.79;22.09
77077;BME280;66003;52.286;104.306;2024-03-22T04:11:44;96368.28;;;0.42;22.69
77077;BME280;66003;52.286;104.306;2024-03-22T04:14:10;96385.19;;;0.26;21.58
77077;BME280;66003;52.286;104.306;2024-03-22T04:16:36;96373.44;;;0.22;20.66
77077;BME280;66003;52.286;104.306;2024-03-22T04:19:02;96365.22;;;0.23;20.25
77077;BME280;66003;52.286;104.306;2024-03-22T04:21:29;96377.56;;;0.40;20.13
77077;BME280;66003;52.286;104.306;2024-03-22T04:23:55;96375.69;;;0.97;21.55
77077;BME280;66003;52.286;104.306;2024-03-22T04:26:21;96377.00;;;0.90;18.34
77077;BME280;66003;52.286;104.306;2024-03-22T04:28:48;96374.94;;;1.17;19.81
77077;BME280;66003;52.286;104.306;2024-03-22T04:31:15;96374.97;;;1.22;19.77
77077;BME280;66003;52.286;104.306;2024-03-22T04:33:41;96385.00;;;1.00;19.44
77077;BME280;66003;52.286;104.306;2024-03-22T04:36:07;96389.50;;;0.94;21.07
77077;BME280;66003;52.286;104.306;2024-03-22T04:38:37;96388.75;;;0.47;20.37
77077;BME280;66003;52.286;104.306;2024-03-22T04:41:03;96391.38;;;-0.00;20.09
77077;BME280;66003;52.286;104.306;2024-03-22T04:43:29;96386.25;;;-0.39;21.08
77077;BME280;66003;52.286;104.306;2024-03-22T04:45:55;96379.78;;;-0.21;21.54
77077;BME280;66003;52.286;104.306;2024-03-22T04:48:23;96371.41;;;-0.03;20.89
77077;BME280;66003;52.286;104.306;2024-03-22T04:50:51;96376.22;;;0.37;22.77
77077;BME280;66003;52.286;104.306;2024-03-22T04:53:20;96371.72;;;0.43;21.42
77077;BME280;66003;52.286;104.306;2024-03-22T04:55:50;96360.94;;;0.65;22.19
77077;BME280;66003;52.286;104.306;2024-03-22T04:58:17;96363.34;;;0.71;19.55
77077;BME280;66003;52.286;104.306;2024-03-22T05:00:44;96360.69;;;0.71;20.94
77077;BME280;66003;52.286;104.306;2024-03-22T05:03:11;96369.13;;;0.58;21.31
77077;BME280;66003;52.286;104.306;2024-03-22T05:05:38;96365.41;;;0.54;22.38
77077;BME280;66003;52.286;104.306;2024-03-22T05:08:05;96356.94;;;0.15;18.76
77077;BME280;66003;52.286;104.306;2024-03-22T05:10:31;96367.47;;;-0.00;20.17
77077;BME280;66003;52.286;104.306;2024-03-22T05:12:57;96367.00;;;-0.24;20.39
77077;BME280;66003;52.286;104.306;2024-03-22T05:15:24;96375.56;;;-0.49;20.64
77077;BME280;66003;52.286;104.306;2024-03-22T05:17:56;96379.06;;;-0.43;22.11
77077;BME280;66003;52.286;104.306;2024-03-22T05:20:22;96381.81;;;-0.60;21.11
77077;BME280;66003;52.286;104.306;2024-03-22T05:22:49;96379.16;;;-0.60;20.71
77077;BME280;66003;52.286;104.306;2024-03-22T05:25:15;96386.19;;;-0.49;21.44
77077;BME280;66003;52.286;104.306;2024-03-22T05:27:42;96369.09;;;-0.31;21.82
77077;BME280;66003;52.286;104.306;2024-03-22T05:30:10;96383.84;;;-0.45;20.47
77077;BME280;66003;52.286;104.306;2024-03-22T05:32:37;96372.28;;;-0.88;20.28
77077;BME280;66003;52.286;104.306;2024-03-22T05:35:04;96368.06;;;-1.11;21.56
77077;BME280;66003;52.286;104.306;2024-03-22T05:37:31;96377.75;;;-1.38;22.33
77077;BME280;66003;52.286;104.306;2024-03-22T05:39:58;96380.09;;;-1.42;22.36
77077;BME280;66003;52.286;104.306;2024-03-22T05:42:25;96389.22;;;-1.33;23.69
77077;BME280;66003;52.286;104.306;2024-03-22T05:44:51;96384.34;;;-1.19;23.24
77077;BME280;66003;52.286;104.306;2024-03-22T05:47:19;96384.00;;;-1.28;22.65
77077;BME280;66003;52.286;104.306;2024-03-22T05:49:46;96373.81;;;-1.36;22.21
77077;BME280;66003;52.286;104.306;2024-03-22T05:52:13;96368.44;;;-1.41;21.66
77077;BME280;66003;52.286;104.306;2024-03-22T05:54:39;96374.78;;;-1.20;22.35
77077;BME280;66003;52.286;104.306;2024-03-22T05:57:05;96374.06;;;-1.15;21.98
77077;BME280;66003;52.286;104.306;2024-03-22T05:59:31;96373.25;;;-1.16;22.82
77077;BME280;66003;52.286;104.306;2024-03-22T06:01:59;96374.78;;;-1.20;22.86
77077;BME280;66003;52.286;104.306;2024-03-22T06:04:25;96370.38;;;-1.36;21.53
77077;BME280;66003;52.286;104.306;2024-03-22T06:06:52;96365.00;;;-1.41;20.82
77077;BME280;66003;52.286;104.306;2024-03-22T06:09:18;96369.44;;;-1.25;21.82
77077;BME280;66003;52.286;104.306;2024-03-22T06:12:00;96372.91;;;-1.25;21.81
77077;BME280;66003;52.286;104.306;2024-03-22T06:14:28;96372.13;;;-1.20;21.64
77077;BME280;66003;52.286;104.306;2024-03-22T06:16:55;96361.84;;;-1.16;21.14
77077;BME280;66003;52.286;104.306;2024-03-22T06:19:21;96363.59;;;-1.05;21.10
77077;BME280;66003;52.286;104.306;2024-03-22T06:21:47;96368.56;;;-0.60;21.56
77077;BME280;66003;52.286;104.306;2024-03-22T06:24:13;96363.09;;;-0.17;21.56
77077;BME280;66003;52.286;104.306;2024-03-22T06:26:39;96362.81;;;0.22;21.87
77077;BME280;66003;52.286;104.306;2024-03-22T06:29:06;96370.50;;;0.66;21.49
77077;BME280;66003;52.286;104.306;2024-03-22T06:31:32;96368.28;;;1.10;20.61
77077;BME280;66003;52.286;104.306;2024-03-22T06:33:58;96362.25;;;1.45;20.83
77077;BME280;66003;52.286;104.306;2024-03-22T06:36:31;96363.34;;;1.59;19.95
77077;BME280;66003;52.286;104.306;2024-03-22T06:39:01;96356.16;;;1.59;19.58
77077;BME280;66003;52.286;104.306;2024-03-22T06:41:28;96360.91;;;1.42;19.15
77077;BME280;66003;52.286;104.306;2024-03-22T06:43:55;96364.25;;;0.97;20.59
77077;BME280;66003;52.286;104.306;2024-03-22T06:46:21;96362.41;;;0.45;19.93
77077;BME280;66003;52.286;104.306;2024-03-22T06:48:47;96353.78;;;0.18;22.02
77077;BME280;66003;52.286;104.306;2024-03-22T06:51:13;96363.34;;;0.19;22.18
77077;BME280;66003;52.286;104.306;2024-03-22T06:53:39;96367.00;;;0.08;19.73
77077;BME280;66003;52.286;104.306;2024-03-22T06:56:06;96359.91;;;0.23;20.11
77077;BME280;66003;52.286;104.306;2024-03-22T06:58:36;96364.81;;;0.47;20.57
77077;BME280;66003;52.286;104.306;2024-03-22T07:01:02;96362.25;;;0.67;20.48
77077;BME280;66003;52.286;104.306;2024-03-22T07:03:29;96367.91;;;0.76;20.47
77077;BME280;66003;52.286;104.306;2024-03-22T07:05:56;96356.09;;;0.51;19.93
77077;BME280;66003;52.286;104.306;2024-03-22T07:08:26;96366.72;;;0.56;21.80
77077;BME280;66003;52.286;104.306;2024-03-22T07:10:53;96358.09;;;0.29;20.45
77077;BME280;66003;52.286;104.306;2024-03-22T07:13:21;96367.53;;;0.10;20.49
77077;BME280;66003;52.286;104.306;2024-03-22T07:15:48;96371.09;;;-0.12;20.58
77077;BME280;66003;52.286;104.306;2024-03-22T07:18:15;96374.34;;;-0.36;20.97
77077;BME280;66003;52.286;104.306;2024-03-22T07:20:42;96378.44;;;-0.82;20.45
77077;BME280;66003;52.286;104.306;2024-03-22T07:23:09;96372.56;;;-1.11;21.39
77077;BME280;66003;52.286;104.306;2024-03-22T07:25:35;96376.47;;;-1.14;21.61
77077;BME280;66003;52.286;104.306;2024-03-22T07:28:01;96375.19;;;-0.90;20.96
77077;BME280;66003;52.286;104.306;2024-03-22T07:30:27;96384.44;;;-0.92;21.57
77077;BME280;66003;52.286;104.306;2024-03-22T07:32:54;96376.59;;;-1.26;20.60
77077;BME280;66003;52.286;104.306;2024-03-22T07:35:20;96368.16;;;-1.23;20.71
77077;BME280;66003;52.286;104.306;2024-03-22T07:37:46;96362.47;;;-1.09;20.83
77077;BME280;66003;52.286;104.306;2024-03-22T07:40:12;96363.06;;;-0.80;21.88
77077;BME280;66003;52.286;104.306;2024-03-22T07:42:39;96361.47;;;-0.81;20.81
77077;BME280;66003;52.286;104.306;2024-03-22T07:45:05;96362.97;;;-0.64;20.56
77077;BME280;66003;52.286;104.306;2024-03-22T07:47:31;96337.94;;;-0.41;20.48
77077;BME280;66003;52.286;104.306;2024-03-22T07:49:58;96346.38;;;-0.17;20.99
77077;BME280;66003;52.286;104.306;2024-03-22T07:52:24;96348.25;;;-0.13;21.26
77077;BME280;66003;52.286;104.306;2024-03-22T07:54:50;96347.53;;;-0.40;21.45
77077;BME280;66003;52.286;104.306;2024-03-22T07:57:16;96351.75;;;-0.71;20.64
77077;BME280;66003;52.286;104.306;2024-03-22T07:59:42;96337.13;;;-0.73;21.05
77077;BME280;66003;52.286;104.306;2024-03-22T08:02:10;96338.69;;;-0.77;21.01
77077;BME280;66003;52.286;104.306;2024-03-22T08:04:36;96338.72;;;-0.72;20.99
77077;BME280;66003;52.286;104.306;2024-03-22T08:07:03;96327.13;;;-0.66;21.00
77077;BME280;66003;52.286;104.306;2024-03-22T08:09:29;96340.22;;;-0.55;21.51
77077;BME280;66003;52.286;104.306;2024-03-22T08:11:55;96338.88;;;-0.57;21.14
77077;BME280;66003;52.286;104.306;2024-03-22T08:14:21;96340.59;;;-1.00;19.49
77077;BME280;66003;52.286;104.306;2024-03-22T08:16:47;96340.72;;;-1.11;20.57
77077;BME280;66003;52.286;104.306;2024-03-22T08:19:14;96344.78;;;-1.04;20.65
77077;BME280;66003;52.286;104.306;2024-03-22T08:21:40;96340.31;;;-1.20;20.35
77077;BME280;66003;52.286;104.306;2024-03-22T08:24:06;96336.88;;;-1.21;20.89
77077;BME280;66003;52.286;104.306;2024-03-22T08:26:32;96336.88;;;-1.21;20.91
77077;BME280;66003;52.286;104.306;2024-03-22T08:28:59;96340.16;;;-1.35;21.13
77077;BME280;66003;52.286;104.306;2024-03-22T08:31:25;96331.34;;;-1.41;21.74
77077;BME280;66003;52.286;104.306;2024-03-22T08:33:54;96330.75;;;-1.70;21.21
77077;BME280;66003;52.286;104.306;2024-03-22T08:36:22;96332.38;;;-1.64;22.01
77077;BME280;66003;52.286;104.306;2024-03-22T08:38:49;96341.22;;;-1.58;21.58
77077;BME280;66003;52.286;104.306;2024-03-22T08:41:15;96329.38;;;-1.72;21.50
77077;BME280;66003;52.286;104.306;2024-03-22T08:43:41;96332.81;;;-1.72;22.09
77077;BME280;66003;52.286;104.306;2024-03-22T08:46:08;96324.78;;;-1.77;22.33
77077;BME280;66003;52.286;104.306;2024-03-22T08:48:34;96327.69;;;-1.78;22.51
77077;BME280;66003;52.286;104.306;2024-03-22T08:51:01;96318.88;;;-1.84;21.83
77077;BME280;66003;52.286;104.306;2024-03-22T08:53:27;96310.53;;;-1.93;21.75
77077;BME280;66003;52.286;104.306;2024-03-22T08:55:54;96308.00;;;-2.04;21.41
77077;BME280;66003;52.286;104.306;2024-03-22T08:58:20;96308.88;;;-1.99;22.15
77077;BME280;66003;52.286;104.306;2024-03-22T09:00:46;96306.25;;;-2.15;22.22
77077;BME280;66003;52.286;104.306;2024-03-22T09:03:12;96306.69;;;-2.23;21.69
77077;BME280;66003;52.286;104.306;2024-03-22T09:05:41;96292.59;;;-2.29;21.21
77077;BME280;66003;52.286;104.306;2024-03-22T09:08:07;96291.13;;;-2.37;21.32
77077;BME280;66003;52.286;104.306;2024-03-22T09:10:34;96290.41;;;-2.49;21.86
77077;BME280;66003;52.286;104.306;2024-03-22T09:13:00;96289.22;;;-2.58;21.25
77077;BME280;66003;52.286;104.306;2024-03-22T09:15:27;96290.25;;;-2.59;21.52
77077;BME280;66003;52.286;104.306;2024-03-22T09:17:53;96288.91;;;-2.45;22.77
77077;BME280;66003;52.286;104.306;2024-03-22T09:20:19;96286.56;;;-2.58;22.01
77077;BME280;66003;52.286;104.306;2024-03-22T09:22:46;96287.38;;;-2.74;21.47
77077;BME280;66003;52.286;104.306;2024-03-22T09:25:12;96286.25;;;-2.78;22.67
77077;BME280;66003;52.286;104.306;2024-03-22T09:27:38;96288.00;;;-2.84;22.62
77077;BME280;66003;52.286;104.306;2024-03-22T09:30:05;96287.59;;;-2.92;22.30
77077;BME280;66003;52.286;104.306;2024-03-22T09:32:32;96288.16;;;-2.90;21.99
77077;BME280;66003;52.286;104.306;2024-03-22T09:34:58;96287.75;;;-2.82;22.43
77077;BME280;66003;52.286;104.306;2024-03-22T09:37:25;96296.09;;;-2.90;22.48
77077;BME280;66003;52.286;104.306;2024-03-22T09:39:51;96290.31;;;-3.04;22.18
77077;BME280;66003;52.286;104.306;2024-03-22T09:42:17;96303.91;;;-3.12;22.70
77077;BME280;66003;52.286;104.306;2024-03-22T09:44:48;96299.66;;;-3.13;22.32
77077;BME280;66003;52.286;104.306;2024-03-22T09:47:19;96297.72;;;-3.18;22.71
77077;BME280;66003;52.286;104.306;2024-03-22T09:49:47;96290.13;;;-3.14;23.14
77077;BME280;66003;52.286;104.306;2024-03-22T09:52:15;96293.72;;;-3.20;22.87
77077;BME280;66003;52.286;104.306;2024-03-22T09:54:45;96308.88;;;-3.16;23.04
77077;BME280;66003;52.286;104.306;2024-03-22T09:57:15;96313.03;;;-3.20;22.33
77077;BME280;66003;52.286;104.306;2024-03-22T09:59:43;96319.16;;;-3.31;23.34
77077;BME280;66003;52.286;104.306;2024-03-22T10:02:11;96314.66;;;-3.59;22.57
77077;BME280;66003;52.286;104.306;2024-03-22T10:04:41;96311.91;;;-3.64;22.21
77077;BME280;66003;52.286;104.306;2024-03-22T10:07:08;96314.44;;;-3.69;22.70
77077;BME280;66003;52.286;104.306;2024-03-22T10:09:36;96304.38;;;-3.72;22.82
77077;BME280;66003;52.286;104.306;2024-03-22T10:12:03;96303.22;;;-3.76;22.71
77077;BME280;66003;52.286;104.306;2024-03-22T10:14:30;96308.72;;;-3.78;23.24
77077;BME280;66003;52.286;104.306;2024-03-22T10:16:57;96305.66;;;-3.86;22.65
77077;BME280;66003;52.286;104.306;2024-03-22T10:19:25;96304.88;;;-3.98;23.02
77077;BME280;66003;52.286;104.306;2024-03-22T10:22:02;96307.75;;;-4.00;22.58
77077;BME280;66003;52.286;104.306;2024-03-22T10:24:29;96309.56;;;-3.89;23.96
77077;BME280;66003;52.286;104.306;2024-03-22T10:26:56;96303.84;;;-3.97;23.85
77077;BME280;66003;52.286;104.306;2024-03-22T10:29:23;96306.16;;;-4.24;22.84
77077;BME280;66003;52.286;104.306;2024-03-22T10:31:53;96305.25;;;-4.30;22.65
77077;BME280;66003;52.286;104.306;2024-03-22T10:34:21;96304.31;;;-4.35;23.10
77077;BME280;66003;52.286;104.306;2024-03-22T10:36:49;96308.13;;;-4.43;23.68
77077;BME280;66003;52.286;104.306;2024-03-22T10:39:19;96315.44;;;-4.57;22.78
77077;BME280;66003;52.286;104.306;2024-03-22T10:41:46;96315.06;;;-4.72;22.73
77077;BME280;66003;52.286;104.306;2024-03-22T10:44:13;96305.22;;;-4.65;22.72
77077;BME280;66003;52.286;104.306;2024-03-22T10:46:44;96312.66;;;-4.73;23.64
77077;BME280;66003;52.286;104.306;2024-03-22T10:49:16;96305.09;;;-4.82;23.51
77077;BME280;66003;52.286;104.306;2024-03-22T10:51:45;96310.91;;;-4.91;23.22
77077;BME280;66003;52.286;104.306;2024-03-22T10:54:20;96309.84;;;-5.02;23.17
77077;BME280;66003;52.286;104.306;2024-03-22T10:56:49;96302.97;;;-5.03;23.46
77077;BME280;66003;52.286;104.306;2024-03-22T10:59:19;96311.44;;;-5.12;24.40
77077;BME280;66003;52.286;104.306;2024-03-22T11:01:46;96321.47;;;-5.21;23.80
77077;BME280;66003;52.286;104.306;2024-03-22T11:04:19;96310.47;;;-5.18;24.08
77077;BME280;66003;52.286;104.306;2024-03-22T11:06:49;96319.09;;;-5.41;23.37
77077;BME280;66003;52.286;104.306;2024-03-22T11:09:22;96315.09;;;-5.43;22.99
77077;BME280;66003;52.286;104.306;2024-03-22T11:11:51;96302.81;;;-5.49;23.26
77077;BME280;66003;52.286;104.306;2024-03-22T11:14:18;96307.00;;;-5.60;23.60
77077;BME280;66003;52.286;104.306;2024-03-22T11:16:47;96308.84;;;-5.61;24.00
77077;BME280;66003;52.286;104.306;2024-03-22T11:19:13;96301.75;;;-5.60;23.64
77077;BME280;66003;52.286;104.306;2024-03-22T11:21:39;96304.91;;;-5.88;23.21
77077;BME280;66003;52.286;104.306;2024-03-22T11:24:06;96297.91;;;-5.94;23.51
77077;BME280;66003;52.286;104.306;2024-03-22T11:26:33;96306.66;;;-6.00;24.13
77077;BME280;66003;52.286;104.306;2024-03-22T11:29:00;96309.13;;;-6.05;23.55
77077;BME280;66003;52.286;104.306;2024-03-22T11:31:28;96307.47;;;-6.18;23.50
77077;BME280;66003;52.286;104.306;2024-03-22T11:33:55;96306.88;;;-6.20;23.53
77077;BME280;66003;52.286;104.306;2024-03-22T11:36:25;96315.03;;;-6.28;23.43
77077;BME280;66003;52.286;104.306;2024-03-22T11:38:51;96316.44;;;-6.25;23.63
77077;BME280;66003;52.286;104.306;2024-03-22T11:41:27;96319.50;;;-6.29;23.84
77077;BME280;66003;52.286;104.306;2024-03-22T11:43:55;96326.44;;;-6.34;23.23
77077;BME280;66003;52.286;104.306;2024-03-22T11:46:24;96329.06;;;-6.34;23.26
77077;BME280;66003;52.286;104.306;2024-03-22T11:48:54;96325.78;;;-6.30;23.71
77077;BME280;66003;52.286;104.306;2024-03-22T11:51:21;96332.34;;;-6.39;24.24
77077;BME280;66003;52.286;104.306;2024-03-22T11:53:51;96332.13;;;-6.37;24.60
77077;BME280;66003;52.286;104.306;2024-03-22T11:56:19;96326.25;;;-6.39;24.40
77077;BME280;66003;52.286;104.306;2024-03-22T11:58:49;96327.88;;;-6.38;24.56
77077;BME280;66003;52.286;104.306;2024-03-22T12:01:23;96336.75;;;-6.33;24.18
77077;BME280;66003;52.286;104.306;2024-03-22T12:03:49;96330.50;;;-6.38;24.13
77077;BME280;66003;52.286;104.306;2024-03-22T12:06:16;96320.97;;;-6.33;24.43
77077;BME280;66003;52.286;104.306;2024-03-22T12:08:42;96314.22;;;-6.29;24.43
77077;BME280;66003;52.286;104.306;2024-03-22T12:11:09;96321.84;;;-6.20;24.93
77077;BME280;66003;52.286;104.306;2024-03-22T12:13:37;96332.16;;;-6.19;24.46
77077;BME280;66003;52.286;104.306;2024-03-22T12:16:04;96331.72;;;-6.16;24.64
77077;BME280;66003;52.286;104.306;2024-03-22T12:18:31;96335.81;;;-6.20;24.39
77077;BME280;66003;52.286;104.306;2024-03-22T12:20:57;96322.22;;;-6.17;25.11
77077;BME280;66003;52.286;104.306;2024-03-22T12:23:24;96329.28;;;-6.17;24.80
77077;BME280;66003;52.286;104.306;2024-03-22T12:25:50;96338.22;;;-6.18;24.64
77077;BME280;66003;52.286;104.306;2024-03-22T12:28:18;96333.44;;;-6.28;24.59
77077;BME280;66003;52.286;104.306;2024-03-22T12:30:44;96327.84;;;-6.32;24.63
77077;BME280;66003;52.286;104.306;2024-03-22T12:33:10;96336.34;;;-6.36;24.92
77077;BME280;66003;52.286;104.306;2024-03-22T12:35:41;96329.28;;;-6.36;25.09
77077;BME280;66003;52.286;104.306;2024-03-22T12:38:08;96329.28;;;-6.36;24.92
77077;BME280;66003;52.286;104.306;2024-03-22T12:40:40;96329.19;;;-6.29;25.23
77077;BME280;66003;52.286;104.306;2024-03-22T12:43:09;96331.47;;;-6.33;25.05